createdAt,value
2018-09-09T00:01:18.652Z,16.27
2018-09-09T00:03:47.327Z,16.17
2018-09-09T00:06:15.988Z,16.57
2018-09-09T00:08:44.644Z,16.37
2018-09-09T00:11:13.286Z,17.17
2018-09-09T00:13:41.943Z,17.60
2018-09-09T00:16:10.588Z,16.83
2018-09-09T00:18:39.243Z,16.50
2018-09-09T00:21:07.947Z,16.63
2018-09-09T00:23:36.633Z,16.90
2018-09-09T00:26:05.319Z,17.27
2018-09-09T00:28:33.933Z,16.93
2018-09-09T00:31:02.571Z,16.20
2018-09-09T00:33:31.291Z,16.10
2018-09-09T00:36:00.013Z,16.27
2018-09-09T00:38:28.684Z,15.60
2018-09-09T00:40:57.327Z,15.30
2018-09-09T00:43:26.025Z,16.07
2018-09-09T00:45:54.701Z,17.23
2018-09-09T00:48:23.353Z,15.90
2018-09-09T00:50:57.270Z,15.83
2018-09-09T00:53:31.153Z,16.43
2018-09-09T00:55:59.839Z,16.17
2018-09-09T00:58:28.475Z,15.53
2018-09-09T01:01:02.424Z,15.47
2018-09-09T01:03:31.196Z,15.50
2018-09-09T01:05:59.869Z,14.93
2018-09-09T01:08:28.528Z,15.77
2018-09-09T01:10:57.166Z,15.73
2018-09-09T01:13:25.772Z,15.50
2018-09-09T01:15:54.498Z,16.60
2018-09-09T01:18:23.155Z,15.17
2018-09-09T01:20:51.862Z,15.27
2018-09-09T01:23:20.625Z,15.30
2018-09-09T01:25:49.301Z,16.17
2018-09-09T01:28:17.934Z,14.90
2018-09-09T01:30:46.591Z,15.83
2018-09-09T01:33:15.224Z,15.10
2018-09-09T01:35:43.964Z,14.57
2018-09-09T01:38:12.608Z,16.67
2018-09-09T01:40:41.299Z,15.00
2018-09-09T01:43:09.955Z,15.07
2018-09-09T01:45:38.734Z,15.07
2018-09-09T01:48:07.414Z,16.30
2018-09-09T01:50:36.050Z,15.73
2018-09-09T01:53:04.822Z,15.37
2018-09-09T01:55:33.820Z,14.97
2018-09-09T01:58:02.482Z,15.63
2018-09-09T02:00:31.152Z,15.37
2018-09-09T02:02:59.795Z,15.30
2018-09-09T02:05:28.494Z,16.10
2018-09-09T02:07:57.161Z,15.73
2018-09-09T02:10:25.839Z,13.97
2018-09-09T02:12:54.459Z,15.10
2018-09-09T02:15:23.124Z,16.43
2018-09-09T02:17:51.787Z,16.17
2018-09-09T02:20:20.464Z,16.43
2018-09-09T02:22:49.131Z,17.03
2018-09-09T02:25:17.827Z,15.63
2018-09-09T02:27:46.424Z,16.10
2018-09-09T02:30:15.071Z,16.00
2018-09-09T02:32:43.706Z,16.00
2018-09-09T02:35:12.343Z,16.07
2018-09-09T02:37:41.039Z,16.37
2018-09-09T02:40:09.755Z,16.33
2018-09-09T02:42:38.443Z,17.03
2018-09-09T02:45:07.110Z,16.87
2018-09-09T02:47:35.811Z,17.20
2018-09-09T02:50:04.566Z,17.77
2018-09-09T02:52:33.798Z,17.37
2018-09-09T02:55:02.494Z,18.63
2018-09-09T02:57:31.126Z,17.23
2018-09-09T02:59:59.748Z,17.80
2018-09-09T03:02:28.421Z,17.67
2018-09-09T03:04:57.059Z,16.57
2018-09-09T03:07:25.691Z,18.10
2018-09-09T03:09:54.316Z,17.20
2018-09-09T03:12:22.938Z,17.97
2018-09-09T03:14:51.608Z,16.97
2018-09-09T03:17:20.239Z,18.57
2018-09-09T03:19:48.880Z,18.57
2018-09-09T03:22:17.524Z,18.27
2018-09-09T03:24:46.187Z,17.27
2018-09-09T03:27:14.856Z,18.57
2018-09-09T03:29:43.567Z,18.67
2018-09-09T03:32:12.202Z,19.43
2018-09-09T03:34:40.876Z,19.47
2018-09-09T03:37:09.520Z,19.07
2018-09-09T03:39:38.269Z,19.40
2018-09-09T03:42:07.284Z,19.00
2018-09-09T03:44:35.911Z,19.40
2018-09-09T03:47:04.603Z,19.23
2018-09-09T03:49:33.217Z,19.40
2018-09-09T03:52:01.894Z,19.17
2018-09-09T03:54:30.535Z,18.73
2018-09-09T03:56:59.198Z,19.53
2018-09-09T03:59:27.943Z,19.50
2018-09-09T04:01:56.546Z,18.90
2018-09-09T04:04:25.228Z,18.63
2018-09-09T04:06:53.907Z,18.63
2018-09-09T04:09:22.592Z,18.93
2018-09-09T04:11:51.246Z,19.57
2018-09-09T04:14:19.859Z,19.20
2018-09-09T04:16:48.498Z,19.17
2018-09-09T04:19:17.230Z,19.13
2018-09-09T04:21:50.059Z,19.43
2018-09-09T04:24:19.059Z,19.97
2018-09-09T04:26:47.848Z,20.00
2018-09-09T04:29:16.573Z,18.53
2018-09-09T04:31:45.428Z,20.10
2018-09-09T04:34:14.336Z,18.90
2018-09-09T04:36:43.635Z,20.83
2018-09-09T04:39:14.498Z,20.17
2018-09-09T04:41:43.199Z,21.07
2018-09-09T04:44:13.284Z,20.47
2018-09-09T04:46:41.985Z,19.53
2018-09-09T04:49:10.976Z,20.30
2018-09-09T04:51:39.888Z,19.37
2018-09-09T04:54:08.566Z,21.07
2018-09-09T04:56:37.190Z,21.00
2018-09-09T04:59:06.186Z,20.40
2018-09-09T05:01:38.280Z,19.73
2018-09-09T05:04:06.926Z,20.67
2018-09-09T05:06:36.512Z,21.37
2018-09-09T05:09:06.453Z,21.50
2018-09-09T05:11:35.279Z,21.53
2018-09-09T05:14:04.031Z,22.37
2018-09-09T05:16:32.772Z,22.30
2018-09-09T05:19:01.480Z,21.17
2018-09-09T05:21:30.223Z,21.80
2018-09-09T05:23:58.854Z,21.67
2018-09-09T05:26:27.504Z,22.03
2018-09-09T05:28:56.139Z,21.27
2018-09-09T05:31:24.776Z,20.33
2018-09-09T05:33:53.466Z,19.93
2018-09-09T05:36:22.125Z,20.27
2018-09-09T05:38:50.809Z,19.90
2018-09-09T05:41:19.468Z,20.90
2018-09-09T05:43:48.099Z,28.63
2018-09-09T05:46:16.762Z,19.60
2018-09-09T05:48:45.447Z,20.13
2018-09-09T05:51:14.192Z,20.10
2018-09-09T05:53:42.937Z,19.10
2018-09-09T05:56:11.571Z,19.00
2018-09-09T05:58:40.246Z,19.37
2018-09-09T06:01:08.940Z,20.80
2018-09-09T06:04:16.560Z,20.00
2018-09-09T06:06:45.180Z,20.27
2018-09-09T06:09:13.890Z,20.67
2018-09-09T06:11:42.559Z,20.53
2018-09-09T06:14:11.200Z,20.63
2018-09-09T06:16:39.881Z,20.90
2018-09-09T06:19:08.521Z,20.73
2018-09-09T06:21:37.220Z,19.43
2018-09-09T06:24:06.065Z,20.73
2018-09-09T06:26:34.694Z,19.77
2018-09-09T06:29:03.341Z,19.13
2018-09-09T06:31:32.014Z,19.07
2018-09-09T06:34:00.735Z,18.70
2018-09-09T06:36:29.387Z,19.70
2018-09-09T06:38:58.622Z,19.07
2018-09-09T06:41:27.242Z,18.77
2018-09-09T06:43:55.922Z,19.97
2018-09-09T06:46:24.655Z,19.87
2018-09-09T06:48:53.301Z,18.77
2018-09-09T06:51:22.096Z,18.73
2018-09-09T06:53:50.798Z,19.00
2018-09-09T06:56:19.471Z,18.07
2018-09-09T06:58:48.211Z,17.63
2018-09-09T07:01:16.942Z,17.60
2018-09-09T07:03:45.543Z,17.93
2018-09-09T07:06:14.192Z,16.90
2018-09-09T07:08:42.916Z,17.40
2018-09-09T07:11:11.758Z,17.80
2018-09-09T07:13:40.373Z,17.00
2018-09-09T07:16:09.006Z,17.47
2018-09-09T07:18:37.679Z,17.47
2018-09-09T07:21:06.384Z,16.23
2018-09-09T07:23:35.075Z,17.17
2018-09-09T07:26:03.807Z,14.87
2018-09-09T07:28:32.441Z,16.40
2018-09-09T07:31:01.173Z,16.17
2018-09-09T07:33:29.823Z,16.37
2018-09-09T07:35:58.507Z,15.50
2018-09-09T07:38:27.132Z,15.23
2018-09-09T07:40:55.786Z,13.90
2018-09-09T07:43:24.515Z,15.20
2018-09-09T07:45:53.164Z,14.73
2018-09-09T07:48:21.831Z,15.13
2018-09-09T07:50:50.553Z,14.17
2018-09-09T07:53:19.255Z,14.13
2018-09-09T07:55:47.939Z,15.77
2018-09-09T07:58:16.635Z,14.30
2018-09-09T08:00:45.350Z,14.60
2018-09-09T08:03:14.107Z,15.27
2018-09-09T08:05:42.843Z,14.93
2018-09-09T08:08:11.572Z,14.87
2018-09-09T08:10:40.256Z,15.03
2018-09-09T08:13:08.946Z,16.17
2018-09-09T08:15:37.575Z,13.40
2018-09-09T08:18:06.305Z,13.43
2018-09-09T08:20:34.934Z,14.10
2018-09-09T08:23:03.674Z,16.27
2018-09-09T08:25:32.331Z,12.30
2018-09-09T08:28:01.018Z,13.40
2018-09-09T08:30:29.692Z,13.17
2018-09-09T08:32:58.355Z,12.73
2018-09-09T08:35:27.042Z,14.13
2018-09-09T08:37:55.808Z,13.80
2018-09-09T08:40:24.447Z,13.17
2018-09-09T08:42:53.102Z,12.73
2018-09-09T08:45:21.799Z,13.13
2018-09-09T08:47:49.363Z,13.10
2018-09-09T08:50:18.029Z,13.03
2018-09-09T08:52:46.746Z,12.50
2018-09-09T08:55:15.378Z,12.40
2018-09-09T08:57:44.098Z,11.80
2018-09-09T09:00:12.781Z,12.77
2018-09-09T09:02:41.457Z,11.97
2018-09-09T09:05:10.171Z,11.50
2018-09-09T09:07:38.884Z,12.17
2018-09-09T09:10:07.694Z,12.27
2018-09-09T09:12:36.344Z,12.80
2018-09-09T09:15:04.988Z,11.63
2018-09-09T09:17:33.615Z,10.70
2018-09-09T09:20:02.373Z,11.57
2018-09-09T09:22:31.055Z,10.90
2018-09-09T09:24:59.736Z,11.53
2018-09-09T09:27:28.392Z,11.43
2018-09-09T09:29:57.590Z,11.57
2018-09-09T09:32:26.663Z,11.57
2018-09-09T09:34:56.070Z,10.87
2018-09-09T09:37:26.419Z,10.60
2018-09-09T09:39:55.927Z,11.43
2018-09-09T09:42:25.219Z,12.10
2018-09-09T09:44:53.981Z,12.30
2018-09-09T09:47:22.639Z,11.47
2018-09-09T09:49:51.269Z,11.43
2018-09-09T09:52:19.914Z,11.50
2018-09-09T09:54:48.548Z,11.40
2018-09-09T09:57:17.170Z,10.63
2018-09-09T09:59:45.865Z,11.03
2018-09-09T10:02:14.538Z,12.07
2018-09-09T10:04:43.217Z,10.87
2018-09-09T10:07:11.891Z,11.20
2018-09-09T10:09:40.533Z,11.17
2018-09-09T10:12:09.255Z,11.40
2018-09-09T10:14:37.996Z,11.10
2018-09-09T10:17:06.691Z,9.30
2018-09-09T10:19:35.305Z,10.23
2018-09-09T10:22:03.981Z,10.50
2018-09-09T10:24:32.646Z,10.77
2018-09-09T10:27:01.363Z,22.30
2018-09-09T10:29:30.003Z,10.13
2018-09-09T10:31:58.642Z,10.27
2018-09-09T10:34:27.316Z,9.60
2018-09-09T10:36:56.107Z,10.60
2018-09-09T10:39:24.760Z,10.03
2018-09-09T10:41:53.384Z,9.03
2018-09-09T10:44:22.081Z,9.90
2018-09-09T10:46:50.875Z,9.65
2018-09-09T10:49:19.467Z,9.73
2018-09-09T10:51:48.157Z,10.65
2018-09-09T10:54:16.844Z,10.30
2018-09-09T10:56:45.471Z,10.48
2018-09-09T10:59:14.113Z,10.27
2018-09-09T11:01:42.766Z,11.23
2018-09-09T11:04:11.403Z,10.20
2018-09-09T11:06:40.181Z,10.65
2018-09-09T11:09:09.933Z,10.93
2018-09-09T11:11:38.748Z,11.00
2018-09-09T11:14:07.427Z,11.38
2018-09-09T11:16:36.085Z,10.37
2018-09-09T11:19:04.826Z,11.03
2018-09-09T11:21:33.483Z,11.10
2018-09-09T11:24:02.179Z,11.27
2018-09-09T11:26:30.888Z,10.47
2018-09-09T11:28:59.554Z,8.30
2018-09-09T11:31:28.229Z,10.83
2018-09-09T11:33:56.905Z,10.17
2018-09-09T11:36:25.597Z,11.77
2018-09-09T11:38:54.296Z,13.63
2018-09-09T11:41:23.020Z,13.67
2018-09-09T11:43:51.703Z,11.77
2018-09-09T11:46:20.650Z,10.27
2018-09-09T11:48:49.356Z,11.87
2018-09-09T11:51:18.028Z,11.87
2018-09-09T11:53:46.719Z,15.17
2018-09-09T11:56:15.460Z,14.97
2018-09-09T11:58:44.208Z,13.43
2018-09-09T12:01:12.921Z,13.33
2018-09-09T12:03:41.589Z,13.90
2018-09-09T12:06:10.246Z,12.90
2018-09-09T12:08:38.878Z,41.83
2018-09-09T12:11:07.577Z,14.70
2018-09-09T12:13:36.281Z,10.07
2018-09-09T12:16:05.123Z,17.00
2018-09-09T12:18:33.789Z,10.80
2018-09-09T12:21:02.551Z,10.80
2018-09-09T12:23:31.356Z,15.83
2018-09-09T12:26:00.029Z,15.40
2018-09-09T12:28:28.713Z,13.63
2018-09-09T12:30:57.366Z,13.30
2018-09-09T12:33:25.989Z,14.73
2018-09-09T12:35:54.669Z,13.57
2018-09-09T12:38:23.327Z,12.97
2018-09-09T12:40:51.960Z,12.70
2018-09-09T12:43:25.775Z,14.63
2018-09-09T12:45:59.594Z,13.70
2018-09-09T12:48:33.502Z,14.03
2018-09-09T12:51:02.164Z,15.33
2018-09-09T12:53:30.798Z,18.07
2018-09-09T12:55:59.463Z,12.77
2018-09-09T12:58:28.143Z,11.70
2018-09-09T13:00:56.802Z,11.37
2018-09-09T13:03:25.460Z,11.23
2018-09-09T13:05:54.096Z,12.53
2018-09-09T13:08:22.733Z,15.77
2018-09-09T13:10:51.436Z,16.00
2018-09-09T13:13:20.818Z,13.93
2018-09-09T13:15:50.025Z,15.23
2018-09-09T13:18:18.736Z,14.13
2018-09-09T13:20:47.384Z,10.50
2018-09-09T13:23:16.021Z,9.30
2018-09-09T13:25:44.679Z,10.30
2018-09-09T13:28:13.394Z,9.20
2018-09-09T13:30:42.069Z,9.97
2018-09-09T13:33:10.735Z,9.77
2018-09-09T13:35:39.369Z,9.63
2018-09-09T13:38:08.078Z,8.60
2018-09-09T13:40:36.795Z,10.00
2018-09-09T13:43:05.615Z,10.07
2018-09-09T13:45:34.286Z,10.80
2018-09-09T13:48:03.144Z,10.90
2018-09-09T13:50:31.810Z,10.23
2018-09-09T13:53:00.464Z,10.23
2018-09-09T13:55:29.154Z,10.87
2018-09-09T13:57:57.795Z,9.03
2018-09-09T14:00:26.470Z,10.00
2018-09-09T14:02:55.149Z,10.30
2018-09-09T14:05:23.859Z,9.50
2018-09-09T14:07:52.538Z,11.47
2018-09-09T14:10:21.222Z,9.07
2018-09-09T14:12:49.887Z,10.10
2018-09-09T14:15:18.625Z,9.00
2018-09-09T14:17:47.290Z,9.37
2018-09-09T14:20:16.000Z,8.67
2018-09-09T14:22:44.709Z,8.63
2018-09-09T14:25:13.302Z,8.83
2018-09-09T14:27:42.042Z,9.38
2018-09-09T14:31:40.087Z,9.00
2018-09-09T14:34:08.906Z,9.23
2018-09-09T14:36:37.564Z,8.88
2018-09-09T14:39:08.327Z,9.33
2018-09-09T14:41:37.047Z,8.10
2018-09-09T14:44:06.044Z,8.80
2018-09-09T14:46:34.822Z,6.80
2018-09-09T14:49:03.514Z,5.53
2018-09-09T14:51:32.241Z,5.22
2018-09-09T14:54:01.001Z,5.78
2018-09-09T14:56:29.760Z,5.43
2018-09-09T14:58:58.925Z,5.77
2018-09-09T15:01:27.692Z,5.93
2018-09-09T15:03:56.402Z,5.80
2018-09-09T15:06:25.186Z,5.20
2018-09-09T15:08:54.080Z,5.03
2018-09-09T15:11:22.814Z,5.20
2018-09-09T15:13:51.583Z,5.63
2018-09-09T15:16:20.234Z,5.37
2018-09-09T15:18:48.946Z,5.63
2018-09-09T15:21:17.702Z,4.83
2018-09-09T15:23:46.376Z,6.10
2018-09-09T15:26:15.130Z,5.40
2018-09-09T15:28:43.858Z,5.23
2018-09-09T15:31:12.535Z,5.60
2018-09-09T15:33:41.258Z,5.67
2018-09-09T15:36:10.550Z,5.27
2018-09-09T15:38:39.443Z,5.70
2018-09-09T15:41:08.213Z,6.33
2018-09-09T15:43:37.072Z,5.83
2018-09-09T15:46:06.431Z,5.80
2018-09-09T15:48:35.184Z,4.93
2018-09-09T15:51:04.118Z,5.50
2018-09-09T15:53:32.849Z,5.67
2018-09-09T15:56:01.589Z,5.87
2018-09-09T15:58:30.302Z,5.33
2018-09-09T16:00:59.088Z,5.80
2018-09-09T16:03:27.941Z,6.23
2018-09-09T16:05:57.300Z,6.30
2018-09-09T16:08:26.086Z,6.50
2018-09-09T16:10:54.855Z,6.60
2018-09-09T16:13:23.667Z,6.23
2018-09-09T16:15:52.397Z,6.53
2018-09-09T16:18:21.157Z,6.93
2018-09-09T16:20:49.888Z,6.00
2018-09-09T16:23:18.753Z,6.43
2018-09-09T16:25:47.617Z,6.80
2018-09-09T16:28:16.341Z,7.37
2018-09-09T16:30:45.725Z,7.97
2018-09-09T16:33:14.398Z,7.57
2018-09-09T16:35:43.187Z,7.10
2018-09-09T16:38:11.898Z,7.07
2018-09-09T16:40:40.721Z,7.27
2018-09-09T16:43:11.064Z,6.63
2018-09-09T16:45:40.548Z,7.03
2018-09-09T16:48:09.288Z,6.87
2018-09-09T16:50:38.099Z,7.30
2018-09-09T16:53:07.022Z,6.27
2018-09-09T16:57:23.623Z,6.77
2018-09-09T16:59:52.320Z,7.90
2018-09-09T17:02:21.098Z,7.10
2018-09-09T17:04:49.851Z,7.30
2018-09-09T17:07:18.572Z,7.33
2018-09-09T17:09:47.754Z,7.87
2018-09-09T17:12:16.772Z,6.97
2018-09-09T17:14:45.570Z,6.77
2018-09-09T17:17:14.314Z,7.77
2018-09-09T17:19:42.993Z,7.47
2018-09-09T17:22:11.715Z,7.33
2018-09-09T17:24:40.489Z,6.17
2018-09-09T17:27:09.300Z,6.70
2018-09-09T17:29:38.056Z,7.20
2018-09-09T17:32:06.771Z,5.73
2018-09-09T17:34:35.475Z,6.40
2018-09-09T17:37:04.546Z,6.53
2018-09-09T17:39:33.262Z,6.90
2018-09-09T17:42:01.916Z,7.03
2018-09-09T17:44:30.788Z,6.90
2018-09-09T17:46:59.631Z,6.67
2018-09-09T17:49:28.334Z,6.50
2018-09-09T17:51:57.132Z,6.90
2018-09-09T17:54:25.809Z,6.70
2018-09-09T17:56:54.607Z,6.73
2018-09-09T17:59:23.445Z,6.73
2018-09-09T18:01:52.239Z,6.73
2018-09-09T18:04:21.074Z,5.90
2018-09-09T18:06:49.782Z,6.23
2018-09-09T18:09:18.552Z,6.47
2018-09-09T18:11:47.387Z,5.87
2018-09-09T18:14:16.000Z,5.60
2018-09-09T18:16:44.702Z,5.77
2018-09-09T18:19:13.581Z,5.97
2018-09-09T18:21:42.305Z,5.93
2018-09-09T18:24:11.122Z,6.10
2018-09-09T18:26:39.824Z,6.43
2018-09-09T18:29:08.525Z,6.73
2018-09-09T18:31:37.231Z,7.37
2018-09-09T18:34:05.912Z,7.83
2018-09-09T18:36:34.640Z,7.47
2018-09-09T18:39:03.628Z,7.20
2018-09-09T18:41:32.311Z,6.67
2018-09-09T18:44:01.255Z,6.97
2018-09-09T18:46:30.097Z,5.97
2018-09-09T18:48:58.961Z,5.67
2018-09-09T18:51:27.775Z,10.40
2018-09-09T18:53:56.600Z,6.40
2018-09-09T18:56:25.357Z,6.10
2018-09-09T18:58:54.260Z,6.20
2018-09-09T19:01:23.016Z,5.73
2018-09-09T19:03:51.770Z,7.07
2018-09-09T19:06:20.642Z,6.47
2018-09-09T19:08:49.267Z,6.23
2018-09-09T19:11:17.946Z,6.03
2018-09-09T19:13:46.678Z,6.20
2018-09-09T19:16:15.417Z,6.60
2018-09-09T19:18:44.159Z,5.77
2018-09-09T19:21:12.934Z,5.63
2018-09-09T19:23:41.683Z,6.23
2018-09-09T19:26:10.369Z,6.13
2018-09-09T19:28:40.570Z,6.33
2018-09-09T19:31:09.294Z,6.47
2018-09-09T19:33:38.049Z,6.03
2018-09-09T19:36:06.872Z,6.27
2018-09-09T19:38:35.660Z,6.30
2018-09-09T19:41:04.351Z,6.83
2018-09-09T19:43:33.345Z,6.63
2018-09-09T19:46:02.066Z,8.13
2018-09-09T19:48:30.727Z,6.67
2018-09-09T19:50:59.445Z,13.70
2018-09-09T19:53:28.140Z,6.50
2018-09-09T19:55:56.853Z,6.27
2018-09-09T19:58:25.807Z,6.40
2018-09-09T20:00:54.492Z,6.30
2018-09-09T20:03:23.276Z,6.13
2018-09-09T20:05:51.981Z,6.37
2018-09-09T20:08:20.630Z,6.10
2018-09-09T20:10:49.371Z,6.00
2018-09-09T20:13:18.071Z,5.90
2018-09-09T20:15:46.926Z,5.90
2018-09-09T20:18:15.535Z,5.50
2018-09-09T20:20:44.243Z,5.63
2018-09-09T20:23:13.291Z,6.33
2018-09-09T20:25:41.943Z,5.70
2018-09-09T20:28:10.615Z,5.90
2018-09-09T20:30:39.379Z,6.10
2018-09-09T20:33:08.049Z,5.73
2018-09-09T20:35:36.717Z,5.90
2018-09-09T20:38:05.507Z,6.10
2018-09-09T20:40:34.173Z,5.80
2018-09-09T20:43:02.858Z,6.20
2018-09-09T20:45:31.627Z,6.00
2018-09-09T20:48:00.563Z,6.40
2018-09-09T20:50:29.326Z,6.00
2018-09-09T20:52:58.173Z,6.13
2018-09-09T20:55:26.810Z,6.40
2018-09-09T20:57:55.500Z,6.73
2018-09-09T21:00:24.303Z,5.83
2018-09-09T21:02:53.660Z,6.23
2018-09-09T21:05:22.518Z,6.73
2018-09-09T21:07:51.318Z,6.00
2018-09-09T21:10:19.997Z,6.50
2018-09-09T21:12:48.671Z,5.60
2018-09-09T21:15:17.519Z,6.77
2018-09-09T21:17:46.334Z,6.63
2018-09-09T21:20:15.139Z,6.37
2018-09-09T21:22:43.976Z,6.80
2018-09-09T21:25:12.783Z,7.57
2018-09-09T21:27:41.667Z,6.30
2018-09-09T21:30:10.499Z,6.37
2018-09-09T21:32:39.235Z,6.67
2018-09-09T21:35:08.018Z,6.53
2018-09-09T21:37:36.709Z,6.30
2018-09-09T21:40:05.455Z,6.87
2018-09-09T21:42:34.214Z,6.93
2018-09-09T21:45:02.882Z,6.80
2018-09-09T21:47:31.681Z,6.63
2018-09-09T21:50:00.467Z,6.73
2018-09-09T21:52:29.184Z,6.90
2018-09-09T21:54:57.947Z,6.60
2018-09-09T21:57:26.724Z,6.77
2018-09-09T21:59:55.441Z,6.70
2018-09-09T22:02:24.114Z,6.77
2018-09-09T22:04:52.942Z,7.40
2018-09-09T22:07:21.771Z,7.10
2018-09-09T22:09:50.575Z,7.40
2018-09-09T22:12:19.448Z,6.40
2018-09-09T22:14:48.202Z,7.60
2018-09-09T22:17:16.875Z,7.00
2018-09-09T22:19:45.659Z,7.63
2018-09-09T22:22:14.351Z,6.87
2018-09-09T22:24:43.081Z,7.00
2018-09-09T22:27:12.442Z,7.27
2018-09-09T22:29:41.130Z,7.00
2018-09-09T22:32:09.816Z,7.27
2018-09-09T22:34:38.493Z,7.67
2018-09-09T22:37:07.138Z,7.00
2018-09-09T22:39:35.794Z,7.13
2018-09-09T22:42:04.508Z,8.03
2018-09-09T22:44:33.263Z,7.30
2018-09-09T22:47:01.911Z,7.80
2018-09-09T22:49:30.587Z,7.37
2018-09-09T22:51:59.292Z,8.23
2018-09-09T22:54:28.015Z,7.60
2018-09-09T22:56:56.656Z,8.20
2018-09-09T22:59:25.375Z,7.73
2018-09-09T23:01:54.148Z,7.77
2018-09-09T23:04:22.778Z,7.50
2018-09-09T23:06:51.820Z,7.17
2018-09-09T23:09:20.502Z,7.97
2018-09-09T23:11:49.807Z,8.03
2018-09-09T23:14:18.521Z,7.80
2018-09-09T23:16:47.255Z,8.27
2018-09-09T23:19:15.904Z,8.30
2018-09-09T23:21:44.557Z,8.30
2018-09-09T23:24:13.182Z,7.60
2018-09-09T23:26:41.855Z,8.63
2018-09-09T23:29:10.510Z,8.67
2018-09-09T23:34:38.438Z,7.80
2018-09-09T23:37:07.159Z,8.13
2018-09-09T23:39:35.810Z,7.80
2018-09-09T23:42:04.562Z,8.43
2018-09-09T23:44:33.229Z,7.90
2018-09-09T23:47:01.907Z,8.53
2018-09-09T23:49:30.590Z,7.90
2018-09-09T23:51:59.255Z,8.13
2018-09-09T23:54:27.968Z,8.13
2018-09-09T23:56:56.740Z,8.57
2018-09-09T23:59:25.415Z,8.70
